createdAt,value
2019-04-03T00:02:17.174Z,17.67
2019-04-03T00:05:26.818Z,16.87
2019-04-03T00:08:36.665Z,15.57
2019-04-03T00:11:45.822Z,18.43
2019-04-03T00:14:54.479Z,16.93
2019-04-03T00:18:03.140Z,16.53
2019-04-03T00:21:11.887Z,22.87
2019-04-03T00:24:22.243Z,19.23
2019-04-03T00:27:30.907Z,19.00
2019-04-03T00:30:39.543Z,17.57
2019-04-03T00:33:50.013Z,20.00
2019-04-03T00:36:58.696Z,18.80
2019-04-03T00:40:08.577Z,21.03
2019-04-03T00:43:17.181Z,20.33
2019-04-03T00:46:25.924Z,17.77
2019-04-03T00:49:34.483Z,22.70
2019-04-03T00:52:44.579Z,20.13
2019-04-03T00:55:53.253Z,18.60
2019-04-03T00:59:02.094Z,19.77
2019-04-03T01:02:10.846Z,22.93
2019-04-03T01:05:19.499Z,22.83
2019-04-03T01:08:27.822Z,21.67
2019-04-03T01:11:37.158Z,20.00
2019-04-03T01:14:45.743Z,19.60
2019-04-03T01:18:05.182Z,18.73
2019-04-03T01:21:13.899Z,20.57
2019-04-03T01:24:32.768Z,19.83
2019-04-03T01:27:42.005Z,19.70
2019-04-03T01:30:51.072Z,19.50
2019-04-03T01:33:59.847Z,19.83
2019-04-03T01:37:08.427Z,17.47
2019-04-03T01:40:27.318Z,18.43
2019-04-03T01:43:35.986Z,18.57
2019-04-03T01:46:46.047Z,19.97
2019-04-03T01:49:54.722Z,23.27
2019-04-03T01:53:03.361Z,21.60
2019-04-03T01:56:11.904Z,18.00
2019-04-03T01:59:20.712Z,19.33
2019-04-03T02:02:29.346Z,18.53
2019-04-03T02:05:38.513Z,18.83
2019-04-03T02:08:47.136Z,18.07
2019-04-03T02:11:55.776Z,20.43
2019-04-03T02:15:14.757Z,18.23
2019-04-03T02:18:24.893Z,17.60
2019-04-03T02:21:33.850Z,19.97
2019-04-03T02:24:42.490Z,18.07
2019-04-03T02:27:51.205Z,19.80
2019-04-03T02:31:05.789Z,18.23
2019-04-03T02:34:14.709Z,20.83
2019-04-03T02:37:22.945Z,18.70
2019-04-03T02:40:42.098Z,17.60
2019-04-03T02:43:50.633Z,16.80
2019-04-03T02:47:01.069Z,16.53
2019-04-03T02:50:11.560Z,18.23
2019-04-03T02:53:20.387Z,18.00
2019-04-03T02:56:29.177Z,17.87
2019-04-03T02:59:37.842Z,17.80
2019-04-03T03:02:46.561Z,19.73
2019-04-03T03:05:55.294Z,19.30
2019-04-03T03:09:05.326Z,18.33
2019-04-03T03:12:13.941Z,18.60
2019-04-03T03:15:23.414Z,17.50
2019-04-03T03:18:32.270Z,19.10
2019-04-03T03:21:44.061Z,20.03
2019-04-03T03:24:52.382Z,18.07
2019-04-03T03:28:01.246Z,18.17
2019-04-03T03:31:10.773Z,18.20
2019-04-03T03:34:45.541Z,20.53
2019-04-03T03:37:34.317Z,17.43
2019-04-03T03:40:47.274Z,19.17
2019-04-03T03:43:54.569Z,18.27
2019-04-03T03:47:13.968Z,18.43
2019-04-03T03:50:36.779Z,20.73
2019-04-03T03:53:47.807Z,16.70
2019-04-03T03:56:56.626Z,18.23
2019-04-03T04:00:06.627Z,19.10
2019-04-03T04:03:16.806Z,19.53
2019-04-03T04:06:27.933Z,20.27
2019-04-03T04:09:35.952Z,18.40
2019-04-03T04:12:46.328Z,20.17
2019-04-03T04:15:55.330Z,19.93
2019-04-03T04:19:04.433Z,18.00
2019-04-03T04:22:15.578Z,17.10
2019-04-03T04:25:23.781Z,19.30
2019-04-03T04:28:32.924Z,17.87
2019-04-03T04:31:43.255Z,20.60
2019-04-03T04:34:51.899Z,19.97
2019-04-03T04:38:00.693Z,19.77
2019-04-03T04:41:09.354Z,20.00
2019-04-03T04:44:18.050Z,17.70
2019-04-03T04:47:26.824Z,20.10
2019-04-03T04:50:35.565Z,19.57
2019-04-03T04:53:44.204Z,20.47
2019-04-03T04:56:52.967Z,18.87
2019-04-03T05:00:06.771Z,17.83
2019-04-03T05:03:15.402Z,19.13
2019-04-03T05:06:24.090Z,19.27
2019-04-03T05:09:34.645Z,17.90
2019-04-03T05:12:45.317Z,19.67
2019-04-03T05:16:03.810Z,18.30
2019-04-03T05:19:22.768Z,20.07
2019-04-03T05:22:31.478Z,17.23
2019-04-03T05:25:40.340Z,17.93
2019-04-03T05:28:57.052Z,20.30
2019-04-03T05:31:59.373Z,21.63
2019-04-03T05:35:08.083Z,20.37
2019-04-03T05:38:16.828Z,16.47
2019-04-03T05:41:27.543Z,19.03
2019-04-03T05:44:35.870Z,18.83
2019-04-03T05:47:44.838Z,20.83
2019-04-03T05:50:53.591Z,20.10
2019-04-03T05:54:02.156Z,21.53
2019-04-03T05:57:13.367Z,23.73
2019-04-03T06:00:21.555Z,20.73
2019-04-03T06:03:40.523Z,22.40
2019-04-03T06:06:40.689Z,18.77
2019-04-03T06:09:49.341Z,21.30
2019-04-03T06:12:58.154Z,17.53
2019-04-03T06:16:06.723Z,18.53
2019-04-03T06:19:15.366Z,18.13
2019-04-03T06:22:24.086Z,18.00
2019-04-03T06:25:42.940Z,16.40
2019-04-03T06:28:51.763Z,17.97
2019-04-03T06:32:00.705Z,16.97
2019-04-03T06:35:13.340Z,17.63
2019-04-03T06:38:22.367Z,17.10
2019-04-03T06:41:31.522Z,16.90
2019-04-03T06:44:40.457Z,16.07
2019-04-03T06:47:49.151Z,20.60
2019-04-03T06:50:58.215Z,18.77
2019-04-03T06:54:08.207Z,16.27
2019-04-03T06:57:17.045Z,17.40
2019-04-03T07:00:25.724Z,17.10
2019-04-03T07:03:35.069Z,17.23
2019-04-03T07:06:45.247Z,18.50
2019-04-03T07:10:08.335Z,18.53
2019-04-03T07:13:29.116Z,16.70
2019-04-03T07:16:38.570Z,16.57
2019-04-03T07:19:57.064Z,16.47
2019-04-03T07:23:06.173Z,15.60
2019-04-03T07:26:25.287Z,16.23
2019-04-03T07:29:33.985Z,17.23
2019-04-03T07:32:42.774Z,15.40
2019-04-03T07:35:51.428Z,16.07
2019-04-03T07:39:00.049Z,15.27
2019-04-03T07:42:08.669Z,16.10
2019-04-03T07:45:17.443Z,16.10
2019-04-03T07:48:26.365Z,17.87
2019-04-03T07:51:35.844Z,15.23
2019-04-03T07:54:44.761Z,16.70
2019-04-03T07:58:03.954Z,16.77
2019-04-03T08:01:12.647Z,15.37
2019-04-03T08:04:21.986Z,14.70
2019-04-03T08:07:31.622Z,15.50
2019-04-03T08:10:40.306Z,15.63
2019-04-03T08:13:48.997Z,12.93
2019-04-03T08:16:57.535Z,16.90
2019-04-03T08:20:07.687Z,13.23
2019-04-03T08:23:27.565Z,14.50
2019-04-03T08:26:36.264Z,13.70
2019-04-03T08:29:44.958Z,14.40
2019-04-03T08:32:53.785Z,12.57
2019-04-03T08:36:02.478Z,13.20
2019-04-03T08:39:11.216Z,14.67
2019-04-03T08:42:19.830Z,16.13
2019-04-03T08:45:39.749Z,14.30
2019-04-03T08:48:48.576Z,13.00
2019-04-03T08:51:57.346Z,14.97
2019-04-03T08:55:06.096Z,13.97
2019-04-03T08:58:14.743Z,13.10
2019-04-03T09:01:23.392Z,15.47
2019-04-03T09:04:32.057Z,13.23
2019-04-03T09:07:40.702Z,12.97
2019-04-03T09:10:49.343Z,13.93
2019-04-03T09:13:58.001Z,15.30
2019-04-03T09:17:06.654Z,14.23
2019-04-03T09:20:25.609Z,14.30
2019-04-03T09:23:34.148Z,13.77
2019-04-03T09:26:42.716Z,16.03
2019-04-03T09:29:51.331Z,12.83
2019-04-03T09:33:00.531Z,13.77
2019-04-03T09:36:09.548Z,13.47
2019-04-03T09:39:18.078Z,13.43
2019-04-03T09:42:26.721Z,12.67
2019-04-03T09:45:35.571Z,14.07
2019-04-03T09:48:44.587Z,14.80
2019-04-03T09:51:53.853Z,14.40
2019-04-03T09:55:13.250Z,16.23
2019-04-03T09:58:32.923Z,14.93
2019-04-03T10:01:42.781Z,15.43
2019-04-03T10:04:51.436Z,18.53
2019-04-03T10:08:00.416Z,16.73
2019-04-03T10:11:08.250Z,17.73
2019-04-03T10:14:17.449Z,18.03
2019-04-03T10:17:26.232Z,18.93
2019-04-03T10:20:34.881Z,20.20
2019-04-03T10:23:43.529Z,19.80
2019-04-03T10:26:52.148Z,20.37
2019-04-03T10:30:06.865Z,21.23
2019-04-03T10:33:15.426Z,21.57
2019-04-03T10:36:24.165Z,20.40
2019-04-03T10:39:32.809Z,21.20
2019-04-03T10:42:41.570Z,22.17
2019-04-03T10:45:50.429Z,23.90
2019-04-03T10:49:00.404Z,21.67
2019-04-03T10:52:12.632Z,19.93
2019-04-03T10:55:20.251Z,17.53
2019-04-03T10:58:29.049Z,22.00
2019-04-03T11:01:37.808Z,19.97
2019-04-03T11:04:46.497Z,20.57
2019-04-03T11:07:56.329Z,17.40
2019-04-03T11:11:05.154Z,15.87
2019-04-03T11:14:14.047Z,16.67
2019-04-03T11:17:25.116Z,15.83
2019-04-03T11:20:35.673Z,16.23
2019-04-03T11:23:45.208Z,14.43
2019-04-03T11:26:53.665Z,15.23
2019-04-03T11:30:02.417Z,14.27
2019-04-03T11:33:13.433Z,14.47
2019-04-03T11:36:31.704Z,13.03
2019-04-03T11:39:40.473Z,12.70
2019-04-03T11:43:01.134Z,10.60
2019-04-03T11:46:09.667Z,12.33
2019-04-03T11:49:19.984Z,10.60
2019-04-03T11:52:28.752Z,10.40
2019-04-03T11:55:37.877Z,10.13
2019-04-03T11:58:46.842Z,10.97
2019-04-03T12:01:56.662Z,11.30
2019-04-03T12:05:06.105Z,13.63
2019-04-03T12:08:15.969Z,11.87
2019-04-03T12:11:24.801Z,12.70
2019-04-03T12:14:33.536Z,11.90
2019-04-03T12:17:42.206Z,12.83
2019-04-03T12:20:51.017Z,14.80
2019-04-03T12:23:59.647Z,13.10
2019-04-03T12:27:08.368Z,12.50
2019-04-03T12:30:17.345Z,12.83
2019-04-03T12:33:25.942Z,12.67
2019-04-03T12:36:46.109Z,13.40
2019-04-03T12:39:55.257Z,10.47
2019-04-03T12:43:04.296Z,10.37
2019-04-03T12:46:41.026Z,8.93
2019-04-03T12:49:49.082Z,8.53
2019-04-03T12:52:58.224Z,9.20
2019-04-03T12:56:08.725Z,7.37
2019-04-03T12:59:20.243Z,7.27
2019-04-03T13:02:27.888Z,6.37
2019-04-03T13:05:38.052Z,6.03
2019-04-03T13:08:46.920Z,4.80
2019-04-03T13:11:55.599Z,4.20
2019-04-03T13:15:06.087Z,5.40
2019-04-03T13:18:14.968Z,4.77
2019-04-03T13:21:23.835Z,4.87
2019-04-03T13:24:32.908Z,4.20
2019-04-03T13:27:41.821Z,4.43
2019-04-03T13:30:50.579Z,3.80
2019-04-03T13:33:59.225Z,4.03
2019-04-03T13:37:07.849Z,4.13
2019-04-03T13:40:16.728Z,4.43
2019-04-03T13:43:25.707Z,3.73
2019-04-03T13:46:45.362Z,4.20
2019-04-03T13:50:05.144Z,3.40
2019-04-03T13:53:13.953Z,3.47
2019-04-03T13:56:32.627Z,3.77
2019-04-03T13:59:41.525Z,5.97
2019-04-03T14:02:50.588Z,3.83
2019-04-03T14:06:09.757Z,3.80
2019-04-03T14:09:19.587Z,4.77
2019-04-03T14:12:28.267Z,4.10
2019-04-03T14:15:36.984Z,3.50
2019-04-03T14:18:45.862Z,3.43
2019-04-03T14:21:54.633Z,2.47
2019-04-03T14:25:03.376Z,2.73
2019-04-03T14:28:11.998Z,2.90
2019-04-03T14:31:32.954Z,3.90
2019-04-03T14:34:31.230Z,4.33
2019-04-03T14:37:40.058Z,4.33
2019-04-03T14:40:48.795Z,5.10
2019-04-03T14:43:57.483Z,5.30
2019-04-03T14:47:06.212Z,6.37
2019-04-03T14:50:25.201Z,5.70
2019-04-03T14:53:34.959Z,6.83
2019-04-03T14:56:43.676Z,9.10
2019-04-03T14:59:52.222Z,8.53
2019-04-03T15:03:00.977Z,9.63
2019-04-03T15:06:09.754Z,8.97
2019-04-03T15:09:18.266Z,10.77
2019-04-03T15:12:39.796Z,9.43
2019-04-03T15:15:47.596Z,10.10
2019-04-03T15:18:56.327Z,9.63
2019-04-03T15:22:05.034Z,10.03
2019-04-03T15:25:15.070Z,12.97
2019-04-03T15:28:24.157Z,9.83
2019-04-03T15:31:32.872Z,10.20
2019-04-03T15:34:41.501Z,10.40
2019-04-03T15:37:50.402Z,11.27
2019-04-03T15:40:59.828Z,10.27
2019-04-03T15:44:08.484Z,10.50
2019-04-03T15:47:20.533Z,10.87
2019-04-03T15:50:28.551Z,11.13
2019-04-03T15:53:38.156Z,10.60
2019-04-03T15:56:46.839Z,10.93
2019-04-03T15:59:55.535Z,11.37
2019-04-03T16:03:04.207Z,13.07
2019-04-03T16:06:13.053Z,10.77
2019-04-03T16:09:22.275Z,10.93
2019-04-03T16:12:43.141Z,10.17
2019-04-03T16:15:54.858Z,9.57
2019-04-03T16:19:02.187Z,8.87
2019-04-03T16:22:11.581Z,7.97
2019-04-03T16:25:20.403Z,7.53
2019-04-03T16:28:29.675Z,7.97
2019-04-03T16:31:39.564Z,8.13
2019-04-03T16:34:58.385Z,8.20
2019-04-03T16:38:07.160Z,8.57
2019-04-03T16:41:15.801Z,8.47
2019-04-03T16:44:26.264Z,9.27
2019-04-03T16:47:34.752Z,8.20
2019-04-03T16:50:43.366Z,7.90
2019-04-03T16:53:52.042Z,9.70
2019-04-03T16:57:03.473Z,8.90
2019-04-03T17:00:13.374Z,8.33
2019-04-03T17:03:21.902Z,8.33
2019-04-03T17:06:30.526Z,9.30
2019-04-03T17:09:39.529Z,8.60
2019-04-03T17:12:50.081Z,8.47
2019-04-03T17:15:58.564Z,8.53
2019-04-03T17:19:07.356Z,9.40
2019-04-03T17:22:15.967Z,8.23
2019-04-03T17:25:26.969Z,8.33
2019-04-03T17:28:34.949Z,8.47
2019-04-03T17:31:57.156Z,9.23
2019-04-03T17:35:06.738Z,8.27
2019-04-03T17:38:25.161Z,9.73
2019-04-03T17:41:33.788Z,9.93
2019-04-03T17:44:42.834Z,9.53
2019-04-03T17:47:54.033Z,9.23
2019-04-03T17:51:03.124Z,9.30
2019-04-03T17:54:13.968Z,9.87
2019-04-03T17:57:22.715Z,10.60
2019-04-03T18:00:31.626Z,9.67
2019-04-03T18:03:40.243Z,9.87
2019-04-03T18:06:48.867Z,9.93
2019-04-03T18:09:57.501Z,9.60
2019-04-03T18:13:06.339Z,9.50
2019-04-03T18:16:14.972Z,9.70
2019-04-03T18:19:23.741Z,10.30
2019-04-03T18:22:32.280Z,9.50
2019-04-03T18:25:40.939Z,10.07
2019-04-03T18:28:59.749Z,11.03
2019-04-03T18:32:08.556Z,10.57
2019-04-03T18:35:17.494Z,10.80
2019-04-03T18:38:26.046Z,10.17
2019-04-03T18:41:34.685Z,11.30
2019-04-03T18:44:43.364Z,9.80
2019-04-03T18:47:51.992Z,9.80
2019-04-03T18:51:00.526Z,10.63
2019-04-03T18:54:09.794Z,11.30
2019-04-03T18:57:19.469Z,10.33
2019-04-03T19:00:38.320Z,9.87
2019-04-03T19:03:46.961Z,10.40
2019-04-03T19:06:55.724Z,10.70
2019-04-03T19:10:07.398Z,10.67
2019-04-03T19:13:15.007Z,10.93
2019-04-03T19:16:29.283Z,10.60
2019-04-03T19:19:33.937Z,11.20
2019-04-03T19:22:42.578Z,12.20
2019-04-03T19:25:51.209Z,12.80
2019-04-03T19:28:59.901Z,12.20
2019-04-03T19:32:11.835Z,12.23
2019-04-03T19:35:18.775Z,11.83
2019-04-03T19:38:27.674Z,12.50
2019-04-03T19:41:46.522Z,11.47
2019-04-03T19:44:55.223Z,13.30
2019-04-03T19:48:03.993Z,12.43
2019-04-03T19:51:12.691Z,13.10
2019-04-03T19:54:21.424Z,12.33
2019-04-03T19:57:31.888Z,12.67
2019-04-03T20:00:40.550Z,14.20
2019-04-03T20:03:49.203Z,13.53
2019-04-03T20:06:57.814Z,14.17
2019-04-03T20:10:09.003Z,12.93
2019-04-03T20:13:17.561Z,15.50
2019-04-03T20:16:26.287Z,14.23
2019-04-03T20:19:34.946Z,13.53
2019-04-03T20:22:43.549Z,13.20
2019-04-03T20:25:51.184Z,14.13
2019-04-03T20:29:02.138Z,15.83
2019-04-03T20:32:10.067Z,17.17
2019-04-03T20:35:18.909Z,17.27
2019-04-03T20:38:27.978Z,16.67
2019-04-03T20:41:36.749Z,18.40
2019-04-03T20:44:47.939Z,19.17
2019-04-03T20:47:57.243Z,18.80
2019-04-03T20:51:08.785Z,19.60
2019-04-03T20:54:16.379Z,20.67
2019-04-03T20:57:25.041Z,19.97
2019-04-03T21:00:33.793Z,20.90
2019-04-03T21:03:43.751Z,19.87
2019-04-03T21:06:52.702Z,20.43
2019-04-03T21:10:12.474Z,21.07
2019-04-03T21:13:21.004Z,21.03
2019-04-03T21:16:33.446Z,27.77
2019-04-03T21:19:41.179Z,19.83
2019-04-03T21:22:50.754Z,19.30
2019-04-03T21:25:58.859Z,20.50
2019-04-03T21:29:07.572Z,23.13
2019-04-03T21:32:16.113Z,20.50
2019-04-03T21:35:25.452Z,20.60
2019-04-03T21:38:34.362Z,19.47
2019-04-03T21:41:55.995Z,20.93
2019-04-03T21:45:07.304Z,20.27
2019-04-03T21:48:14.480Z,21.53
2019-04-03T21:51:35.135Z,21.53
2019-04-03T21:54:43.718Z,21.37
2019-04-03T21:57:52.316Z,20.07
2019-04-03T22:01:22.403Z,21.03
2019-04-03T22:04:30.958Z,21.63
2019-04-03T22:07:39.610Z,21.13
2019-04-03T22:10:50.365Z,23.43
2019-04-03T22:13:58.384Z,22.03
2019-04-03T22:17:06.935Z,24.00
2019-04-03T22:20:15.560Z,23.37
2019-04-03T22:23:37.072Z,24.07
2019-04-03T22:26:45.762Z,24.20
2019-04-03T22:29:54.403Z,25.77
2019-04-03T22:33:03.086Z,26.07
2019-04-03T22:36:11.569Z,24.70
2019-04-03T22:39:20.281Z,24.03
2019-04-03T22:42:28.912Z,24.63
2019-04-03T22:45:37.508Z,25.40
2019-04-03T22:48:46.220Z,27.83
2019-04-03T22:52:05.136Z,27.33
2019-04-03T22:55:14.889Z,25.63
2019-04-03T22:58:23.976Z,25.93
2019-04-03T23:01:32.647Z,26.77
2019-04-03T23:04:42.102Z,28.13
2019-04-03T23:07:52.096Z,28.37
2019-04-03T23:11:01.522Z,28.67
2019-04-03T23:14:20.585Z,28.23
2019-04-03T23:17:29.330Z,27.83
2019-04-03T23:20:48.703Z,30.57
2019-04-03T23:23:58.416Z,32.07
2019-04-03T23:27:07.072Z,32.10
2019-04-03T23:30:16.209Z,34.33
2019-04-03T23:33:24.868Z,33.33
2019-04-03T23:36:33.523Z,30.83
2019-04-03T23:39:42.613Z,33.10
2019-04-03T23:42:51.299Z,35.60
2019-04-03T23:46:00.193Z,33.77
2019-04-03T23:49:09.340Z,33.50
2019-04-03T23:52:17.955Z,35.33
2019-04-03T23:55:26.602Z,36.90
2019-04-03T23:58:35.245Z,36.80
